createdAt,value
2023-03-29T00:00:14.533Z,1.75
2023-03-29T00:03:19.831Z,2.00
2023-03-29T00:06:22.236Z,1.53
2023-03-29T00:09:26.792Z,2.85
2023-03-29T00:12:29.205Z,2.10
2023-03-29T00:15:31.923Z,2.35
2023-03-29T00:18:34.779Z,1.90
2023-03-29T00:21:37.102Z,1.80
2023-03-29T00:24:39.552Z,2.00
2023-03-29T00:27:41.890Z,5.10
2023-03-29T00:30:44.324Z,1.02
2023-03-29T00:33:47.154Z,4.07
2023-03-29T00:36:53.121Z,1.07
2023-03-29T00:39:56.309Z,1.65
2023-03-29T00:42:58.746Z,2.03
2023-03-29T00:46:01.114Z,1.45
2023-03-29T00:49:12.753Z,3.63
2023-03-29T00:52:16.386Z,1.23
2023-03-29T00:55:22.894Z,1.65
2023-03-29T00:58:43.215Z,1.95
2023-03-29T01:02:07.308Z,2.08
2023-03-29T01:05:14.494Z,2.60
2023-03-29T01:08:20.629Z,1.70
2023-03-29T01:11:28.415Z,1.83
2023-03-29T01:14:35.592Z,1.52
2023-03-29T01:17:40.641Z,1.67
2023-03-29T01:21:05.063Z,4.50
2023-03-29T01:24:12.059Z,1.67
2023-03-29T01:27:33.742Z,2.63
2023-03-29T01:30:44.066Z,2.22
2023-03-29T01:33:50.024Z,1.45
2023-03-29T01:37:00.441Z,4.60
2023-03-29T01:40:05.216Z,3.63
2023-03-29T01:43:27.892Z,2.97
2023-03-29T01:46:46.233Z,2.63
2023-03-29T01:50:18.837Z,2.38
2023-03-29T01:53:29.156Z,2.00
2023-03-29T01:56:34.551Z,2.17
2023-03-29T01:59:40.229Z,2.50
2023-03-29T02:02:45.437Z,1.98
2023-03-29T02:05:47.880Z,2.05
2023-03-29T02:08:51.315Z,1.40
2023-03-29T02:11:54.036Z,3.63
2023-03-29T02:14:58.869Z,4.00
2023-03-29T02:18:01.745Z,2.53
2023-03-29T02:21:04.942Z,6.20
2023-03-29T02:24:10.047Z,2.90
2023-03-29T02:27:14.332Z,3.63
2023-03-29T02:30:18.426Z,2.30
2023-03-29T02:33:53.961Z,2.28
2023-03-29T02:37:03.207Z,3.00
2023-03-29T02:40:08.123Z,3.57
2023-03-29T02:43:13.187Z,3.40
2023-03-29T02:46:16.647Z,4.90
2023-03-29T02:49:19.211Z,4.13
2023-03-29T02:52:25.906Z,4.72
2023-03-29T02:55:34.992Z,4.27
2023-03-29T02:58:37.458Z,2.80
2023-03-29T03:01:42.813Z,4.88
2023-03-29T03:04:45.298Z,2.22
2023-03-29T03:07:47.781Z,3.45
2023-03-29T03:10:50.132Z,1.80
2023-03-29T03:13:54.549Z,3.10
2023-03-29T03:16:57.881Z,1.83
2023-03-29T03:20:00.742Z,2.97
2023-03-29T03:23:03.549Z,3.20
2023-03-29T03:26:06.468Z,1.90
2023-03-29T03:29:09.986Z,3.63
2023-03-29T03:32:34.631Z,3.63
2023-03-29T03:35:38.671Z,5.47
2023-03-29T03:38:44.120Z,6.80
2023-03-29T03:41:47.007Z,3.83
2023-03-29T03:44:49.913Z,7.37
2023-03-29T03:48:04.314Z,4.10
2023-03-29T03:51:36.152Z,2.78
2023-03-29T03:54:39.074Z,4.60
2023-03-29T03:58:13.986Z,4.77
2023-03-29T04:01:17.175Z,9.30
2023-03-29T04:04:29.527Z,6.60
2023-03-29T04:07:54.350Z,7.55
2023-03-29T04:11:07.741Z,6.18
2023-03-29T04:14:13.069Z,5.70
2023-03-29T04:17:41.597Z,5.60
2023-03-29T04:21:06.892Z,9.80
2023-03-29T04:24:10.974Z,8.15
2023-03-29T04:27:16.379Z,28.33
2023-03-29T04:30:18.844Z,34.30
2023-03-29T04:33:46.899Z,33.17
2023-03-29T04:36:53.121Z,34.55
2023-03-29T04:40:02.611Z,27.30
2023-03-29T04:43:12.411Z,22.42
2023-03-29T04:46:26.791Z,14.67
2023-03-29T04:49:48.139Z,16.93
2023-03-29T04:53:00.409Z,16.92
2023-03-29T04:56:04.932Z,18.40
2023-03-29T04:59:27.214Z,29.08
2023-03-29T05:02:32.491Z,33.70
2023-03-29T05:05:35.636Z,18.10
2023-03-29T05:08:39.616Z,9.85
2023-03-29T05:12:03.734Z,18.27
2023-03-29T05:15:14.928Z,10.88
2023-03-29T05:18:17.929Z,7.87
2023-03-29T05:21:22.048Z,11.13
2023-03-29T05:24:24.483Z,9.88
2023-03-29T05:27:35.156Z,12.00
2023-03-29T05:30:44.742Z,14.93
2023-03-29T05:33:57.474Z,13.00
2023-03-29T05:37:01.616Z,12.93
2023-03-29T05:40:10.973Z,13.40
2023-03-29T05:43:41.164Z,10.15
2023-03-29T05:46:43.886Z,11.57
2023-03-29T05:49:51.613Z,9.97
2023-03-29T05:52:58.408Z,8.23
2023-03-29T05:56:00.886Z,8.63
2023-03-29T05:59:05.352Z,12.50
2023-03-29T06:02:08.161Z,8.32
2023-03-29T06:05:14.682Z,7.03
2023-03-29T06:08:37.712Z,8.10
2023-03-29T06:12:04.068Z,6.43
2023-03-29T06:15:07.025Z,8.15
2023-03-29T06:18:33.256Z,9.25
2023-03-29T06:21:35.772Z,6.70
2023-03-29T06:24:38.741Z,7.47
2023-03-29T06:27:47.988Z,5.88
2023-03-29T06:30:54.303Z,6.20
2023-03-29T06:33:58.449Z,6.47
2023-03-29T06:37:21.698Z,6.17
2023-03-29T06:40:31.114Z,7.17
2023-03-29T06:43:34.914Z,9.00
2023-03-29T06:46:42.534Z,8.05
2023-03-29T06:49:45.101Z,8.07
2023-03-29T06:53:11.962Z,6.30
2023-03-29T06:56:16.144Z,5.60
2023-03-29T06:59:21.060Z,6.75
2023-03-29T07:02:49.661Z,7.18
2023-03-29T07:05:53.088Z,5.43
2023-03-29T07:08:59.831Z,5.70
2023-03-29T07:12:16.821Z,6.90
2023-03-29T07:15:24.368Z,6.13
2023-03-29T07:18:52.093Z,5.05
2023-03-29T07:22:16.536Z,3.72
2023-03-29T07:25:25.500Z,17.13
2023-03-29T07:28:28.168Z,5.80
2023-03-29T07:31:30.784Z,7.90
2023-03-29T07:34:50.286Z,4.63
2023-03-29T07:38:08.584Z,4.93
2023-03-29T07:41:13.665Z,7.50
2023-03-29T07:44:37.536Z,5.07
2023-03-29T07:47:41.225Z,5.60
2023-03-29T07:50:44.241Z,3.95
2023-03-29T07:53:46.712Z,6.78
2023-03-29T07:57:08.246Z,4.10
2023-03-29T08:00:16.704Z,7.87
2023-03-29T08:03:29.410Z,7.47
2023-03-29T08:06:31.891Z,6.38
2023-03-29T08:09:34.296Z,2.80
2023-03-29T08:12:37.765Z,5.07
2023-03-29T08:15:42.213Z,5.30
2023-03-29T08:18:54.104Z,3.80
2023-03-29T08:21:59.221Z,5.13
2023-03-29T08:25:05.975Z,7.00
2023-03-29T08:28:13.346Z,3.43
2023-03-29T08:31:21.048Z,4.43
2023-03-29T08:34:23.852Z,4.13
2023-03-29T08:37:44.714Z,2.28
2023-03-29T08:40:49.778Z,4.20
2023-03-29T08:44:08.002Z,3.53
2023-03-29T08:47:46.195Z,5.10
2023-03-29T08:50:55.222Z,3.53
2023-03-29T08:54:12.753Z,4.45
2023-03-29T08:57:46.599Z,3.35
2023-03-29T09:00:56.877Z,6.53
2023-03-29T09:04:39.030Z,7.77
2023-03-29T09:07:56.177Z,3.95
2023-03-29T09:11:26.774Z,3.92
2023-03-29T09:14:36.805Z,6.22
2023-03-29T09:18:03.430Z,4.77
2023-03-29T09:21:31.299Z,4.63
2023-03-29T09:24:54.215Z,3.83
2023-03-29T09:28:14.970Z,2.80
2023-03-29T09:31:32.797Z,3.15
2023-03-29T09:34:46.116Z,3.70
2023-03-29T09:37:55.729Z,4.57
2023-03-29T09:41:09.104Z,3.95
2023-03-29T09:44:29.821Z,2.75
2023-03-29T09:47:41.905Z,4.78
2023-03-29T09:50:48.655Z,2.43
2023-03-29T09:53:51.083Z,3.53
2023-03-29T09:57:13.652Z,3.55
2023-03-29T10:00:17.091Z,4.72
2023-03-29T10:03:21.200Z,2.92
2023-03-29T10:06:31.435Z,2.17
2023-03-29T10:09:36.120Z,2.83
2023-03-29T10:12:52.046Z,3.88
2023-03-29T10:16:24.330Z,5.45
2023-03-29T10:19:37.517Z,4.07
2023-03-29T10:22:41.274Z,4.60
2023-03-29T10:25:44.552Z,3.53
2023-03-29T10:28:47.097Z,2.60
2023-03-29T10:31:50.178Z,4.35
2023-03-29T10:34:53.794Z,4.28
2023-03-29T10:37:58.460Z,6.30
2023-03-29T10:41:08.068Z,4.27
2023-03-29T10:44:50.125Z,3.97
2023-03-29T10:47:55.912Z,3.58
2023-03-29T10:51:04.333Z,3.50
2023-03-29T10:54:09.704Z,3.13
2023-03-29T10:57:51.162Z,2.77
2023-03-29T11:00:57.762Z,8.00
2023-03-29T11:04:12.335Z,4.05
2023-03-29T11:07:36.189Z,2.17
2023-03-29T11:10:59.920Z,3.13
2023-03-29T11:14:21.979Z,2.77
2023-03-29T11:18:03.815Z,2.67
2023-03-29T11:21:26.587Z,3.78
2023-03-29T11:24:54.212Z,4.10
2023-03-29T11:28:24.006Z,6.63
2023-03-29T11:31:44.515Z,4.90
2023-03-29T11:35:00.251Z,3.17
2023-03-29T11:38:12.213Z,4.28
2023-03-29T11:41:21.249Z,3.47
2023-03-29T11:44:28.196Z,3.77
2023-03-29T11:47:35.923Z,2.27
2023-03-29T11:50:46.618Z,4.35
2023-03-29T11:53:59.108Z,3.60
2023-03-29T11:57:06.009Z,4.78
2023-03-29T12:00:29.820Z,4.00
2023-03-29T12:03:46.697Z,2.30
2023-03-29T12:07:12.780Z,4.32
2023-03-29T12:10:21.118Z,2.25
2023-03-29T12:18:51.792Z,3.10
2023-03-29T12:21:56.254Z,3.37
2023-03-29T12:25:00.629Z,3.70
2023-03-29T12:28:24.113Z,2.13
2023-03-29T12:31:29.465Z,1.85
2023-03-29T12:34:56.085Z,4.83
2023-03-29T12:38:23.156Z,3.77
2023-03-29T12:41:49.227Z,4.00
2023-03-29T12:45:18.288Z,4.43
2023-03-29T12:48:25.460Z,5.85
2023-03-29T12:51:32.637Z,3.97
2023-03-29T12:54:35.026Z,5.57
2023-03-29T12:57:41.358Z,2.45
2023-03-29T13:00:45.085Z,4.13
2023-03-29T13:03:49.853Z,2.80
2023-03-29T13:07:02.832Z,4.07
2023-03-29T13:10:09.866Z,5.13
2023-03-29T13:13:21.702Z,5.57
2023-03-29T13:16:33.702Z,3.38
2023-03-29T13:19:42.215Z,4.20
2023-03-29T13:23:15.629Z,4.37
2023-03-29T13:26:42.806Z,3.50
2023-03-29T13:29:54.915Z,2.35
2023-03-29T13:33:08.760Z,5.47
2023-03-29T13:36:40.321Z,2.67
2023-03-29T13:39:50.693Z,4.47
2023-03-29T13:43:25.248Z,4.33
2023-03-29T13:46:37.435Z,5.25
2023-03-29T13:49:43.561Z,5.20
2023-03-29T13:53:13.841Z,8.70
2023-03-29T13:56:19.815Z,2.93
2023-03-29T13:59:32.278Z,5.87
2023-03-29T14:02:38.383Z,9.93
2023-03-29T14:05:42.802Z,5.25
2023-03-29T14:08:45.323Z,5.95
2023-03-29T14:11:47.829Z,4.67
2023-03-29T14:14:58.956Z,5.20
2023-03-29T14:18:02.252Z,3.45
2023-03-29T14:21:05.146Z,4.57
2023-03-29T14:24:12.626Z,5.50
2023-03-29T14:27:16.393Z,4.70
2023-03-29T14:30:21.857Z,5.27
2023-03-29T14:33:27.585Z,5.20
2023-03-29T14:36:32.540Z,3.20
2023-03-29T14:39:35.369Z,5.07
2023-03-29T14:42:37.824Z,5.93
2023-03-29T14:45:40.425Z,3.60
2023-03-29T14:48:43.442Z,4.97
2023-03-29T14:51:46.758Z,4.10
2023-03-29T14:54:52.887Z,4.43
2023-03-29T14:57:55.612Z,4.60
2023-03-29T15:00:58.528Z,9.00
2023-03-29T15:04:09.230Z,6.43
2023-03-29T15:07:11.703Z,6.47
2023-03-29T15:10:21.039Z,4.72
2023-03-29T15:13:25.126Z,4.70
2023-03-29T15:16:30.538Z,3.10
2023-03-29T15:19:33.343Z,5.32
2023-03-29T15:22:36.063Z,6.80
2023-03-29T15:25:50.298Z,3.47
2023-03-29T15:29:08.285Z,5.43
2023-03-29T15:32:19.955Z,5.50
2023-03-29T15:35:25.900Z,2.58
2023-03-29T15:38:40.489Z,4.45
2023-03-29T15:41:50.057Z,3.75
2023-03-29T15:44:56.534Z,7.17
2023-03-29T15:48:01.994Z,4.97
2023-03-29T15:51:06.423Z,3.40
2023-03-29T15:54:09.305Z,4.95
2023-03-29T15:57:13.972Z,3.05
2023-03-29T16:00:16.939Z,6.07
2023-03-29T16:03:19.435Z,4.60
2023-03-29T16:06:23.969Z,5.03
2023-03-29T16:09:27.457Z,4.18
2023-03-29T16:12:29.761Z,7.05
2023-03-29T16:15:33.732Z,4.67
2023-03-29T16:18:36.334Z,5.47
2023-03-29T16:21:38.776Z,5.97
2023-03-29T16:24:41.347Z,4.03
2023-03-29T16:27:44.236Z,6.70
2023-03-29T16:30:46.800Z,3.83
2023-03-29T16:33:49.371Z,7.80
2023-03-29T16:36:53.159Z,5.90
2023-03-29T16:39:56.953Z,6.55
2023-03-29T16:43:00.098Z,5.32
2023-03-29T16:46:02.856Z,7.33
2023-03-29T16:49:07.920Z,5.93
2023-03-29T16:52:10.404Z,9.43
2023-03-29T16:55:13.688Z,5.78
2023-03-29T16:58:16.256Z,9.65
2023-03-29T17:01:19.357Z,4.87
2023-03-29T17:04:21.821Z,4.90
2023-03-29T17:07:24.134Z,5.30
2023-03-29T17:10:26.399Z,7.20
2023-03-29T17:13:29.083Z,7.47
2023-03-29T17:16:31.465Z,8.80
2023-03-29T17:19:36.752Z,7.93
2023-03-29T17:22:40.023Z,11.38
2023-03-29T17:25:43.519Z,30.67
2023-03-29T17:28:45.859Z,11.20
2023-03-29T17:31:48.357Z,7.50
2023-03-29T17:34:51.477Z,7.97
2023-03-29T17:37:54.808Z,9.05
2023-03-29T17:40:57.175Z,7.65
2023-03-29T17:43:59.813Z,5.72
2023-03-29T17:47:02.270Z,4.60
2023-03-29T17:50:05.673Z,5.80
2023-03-29T17:53:07.939Z,3.15
2023-03-29T17:56:10.238Z,3.90
2023-03-29T17:59:12.530Z,3.85
2023-03-29T18:02:25.434Z,4.07
2023-03-29T18:05:28.090Z,4.07
2023-03-29T18:08:31.321Z,4.07
2023-03-29T18:11:33.728Z,3.08
2023-03-29T18:14:36.334Z,7.13
2023-03-29T18:17:41.614Z,6.60
2023-03-29T18:20:45.600Z,2.73
2023-03-29T18:23:48.991Z,5.05
2023-03-29T18:26:51.403Z,2.42
2023-03-29T18:29:55.474Z,3.20
2023-03-29T18:32:57.949Z,3.43
2023-03-29T18:36:01.308Z,3.43
2023-03-29T18:39:07.287Z,3.83
2023-03-29T18:42:13.731Z,4.10
2023-03-29T18:45:18.198Z,4.68
2023-03-29T18:48:20.467Z,5.60
2023-03-29T18:51:23.729Z,3.23
2023-03-29T18:54:26.076Z,3.53
2023-03-29T18:57:30.987Z,4.05
2023-03-29T19:00:33.430Z,4.53
2023-03-29T19:03:36.402Z,4.40
2023-03-29T19:06:39.134Z,3.83
2023-03-29T19:09:41.872Z,4.80
2023-03-29T19:12:44.636Z,5.15
2023-03-29T19:15:47.786Z,3.53
2023-03-29T19:18:50.227Z,5.10
2023-03-29T19:21:53.391Z,2.97
2023-03-29T19:24:55.664Z,4.18
2023-03-29T19:27:58.076Z,4.78
2023-03-29T19:31:01.639Z,4.43
2023-03-29T19:34:07.138Z,3.90
2023-03-29T19:37:09.560Z,3.83
2023-03-29T19:40:12.280Z,3.20
2023-03-29T19:43:16.896Z,4.47
2023-03-29T19:46:20.416Z,5.15
2023-03-29T19:49:22.891Z,4.67
2023-03-29T19:52:25.681Z,6.17
2023-03-29T19:55:28.627Z,4.88
2023-03-29T19:58:31.509Z,7.00
2023-03-29T20:01:33.950Z,5.13
2023-03-29T20:04:37.978Z,5.80
2023-03-29T20:07:40.749Z,7.57
2023-03-29T20:10:43.180Z,5.90
2023-03-29T20:13:45.552Z,6.70
2023-03-29T20:16:49.936Z,5.35
2023-03-29T20:19:54.028Z,6.53
2023-03-29T20:23:04.647Z,8.77
2023-03-29T20:26:08.623Z,7.20
2023-03-29T20:29:10.996Z,6.00
2023-03-29T20:32:13.351Z,9.25
2023-03-29T20:35:15.803Z,7.73
2023-03-29T20:38:18.173Z,7.23
2023-03-29T20:41:20.756Z,9.65
2023-03-29T20:44:28.417Z,8.52
2023-03-29T20:47:30.850Z,9.15
2023-03-29T20:50:33.623Z,10.83
2023-03-29T20:53:35.873Z,8.00
2023-03-29T20:56:40.023Z,7.60
2023-03-29T20:59:43.919Z,9.52
2023-03-29T21:02:47.164Z,11.23
2023-03-29T21:05:54.205Z,11.13
2023-03-29T21:08:57.635Z,11.00
2023-03-29T21:12:00.238Z,9.05
2023-03-29T21:15:03.893Z,12.30
2023-03-29T21:18:06.945Z,9.85
2023-03-29T21:21:11.101Z,12.63
2023-03-29T21:24:13.865Z,9.10
2023-03-29T21:27:16.419Z,11.07
2023-03-29T21:30:18.808Z,8.85
2023-03-29T21:33:21.172Z,8.82
2023-03-29T21:36:24.264Z,8.30
2023-03-29T21:39:27.236Z,10.03
2023-03-29T21:42:29.660Z,17.77
2023-03-29T21:45:32.644Z,92.32
2023-03-29T21:48:35.432Z,51.40
2023-03-29T21:51:37.877Z,43.17
2023-03-29T21:54:40.376Z,39.33
2023-03-29T21:57:42.946Z,30.80
2023-03-29T22:00:46.711Z,16.65
2023-03-29T22:03:49.024Z,14.40
2023-03-29T22:06:51.525Z,15.50
2023-03-29T22:09:54.807Z,14.03
2023-03-29T22:12:57.133Z,16.67
2023-03-29T22:16:01.216Z,12.95
2023-03-29T22:19:04.566Z,16.42
2023-03-29T22:22:13.707Z,18.40
2023-03-29T22:25:17.779Z,16.87
2023-03-29T22:28:20.092Z,23.08
2023-03-29T22:31:23.800Z,23.58
2023-03-29T22:34:26.743Z,23.98
2023-03-29T22:37:29.268Z,29.40
2023-03-29T22:40:33.433Z,23.00
2023-03-29T22:43:37.069Z,28.50
2023-03-29T22:46:39.387Z,28.92
2023-03-29T22:49:41.928Z,32.10
2023-03-29T22:52:44.248Z,31.93
2023-03-29T22:55:46.655Z,28.00
2023-03-29T22:58:49.224Z,31.77
2023-03-29T23:01:52.136Z,25.75
2023-03-29T23:04:54.503Z,26.35
2023-03-29T23:07:56.837Z,19.90
2023-03-29T23:10:59.654Z,18.63
2023-03-29T23:14:04.255Z,15.80
2023-03-29T23:17:07.646Z,18.98
2023-03-29T23:20:11.390Z,11.23
2023-03-29T23:23:13.924Z,15.50
2023-03-29T23:26:16.672Z,12.23
2023-03-29T23:29:18.924Z,11.98
2023-03-29T23:32:21.214Z,11.55
2023-03-29T23:35:24.179Z,12.30
2023-03-29T23:38:26.484Z,11.07
2023-03-29T23:41:30.818Z,9.93
2023-03-29T23:44:33.239Z,10.10
2023-03-29T23:47:36.813Z,8.80
2023-03-29T23:50:39.225Z,7.97
2023-03-29T23:53:41.721Z,14.90
2023-03-29T23:56:44.241Z,44.63
2023-03-29T23:59:46.550Z,56.60
